Data for 02/12/2010

Time Sea-Level Adjusted Pressure Absolute Pressure Temperature Relative Humidity Dew Point   
(mb) (inHg) (mb) (inHg) (C) (F) (%) (C) (F)
00:05 1014 29.94 843 24.89 -0.7 30.8 64 -6.6 20.1
00:10 1014 29.94 843 24.89 -0.6 31 66 -6.2 20.9
00:15 1014 29.94 843 24.89 -0.7 30.8 66 -6.2 20.8
00:20 1014 29.94 843 24.89 -0.8 30.6 66 -6.4 20.5
00:25 1014 29.94 843 24.89 -0.7 30.7 65 -6.6 20.1
00:30 1014 29.94 843 24.89 -0.7 30.8 64 -6.6 20.1
00:35 1013 29.91 843 24.89 -0.6 31 63 -6.7 19.9
00:40 1013 29.91 843 24.89 -0.5 31.1 63 -6.8 19.8
00:45 1013 29.91 843 24.89 -0.4 31.3 62 -6.7 19.9
00:50 1013 29.91 843 24.89 -0.4 31.3 63 -6.7 20
00:55 1013 29.91 843 24.89 -0.4 31.3 63 -6.5 20.3
01:00 1013 29.91 843 24.89 -0.3 31.4 63 -6.5 20.3
01:05 1013 29.91 843 24.89 -0.3 31.4 64 -6.2 20.8
01:10 1013 29.91 843 24.89 -0.3 31.5 64 -6.3 20.7
01:15 1013 29.91 843 24.89 -0.2 31.7 62 -6.7 20
01:20 1013 29.91 843 24.89 -0.1 31.8 64 -6.1 21.1
01:25 1013 29.91 842 24.86 -0.3 31.5 66 -5.8 21.6
01:30 1013 29.91 842 24.86 -0.5 31.2 64 -6.4 20.5
01:35 1013 29.91 842 24.86 -0.5 31.1 65 -6.2 20.8
01:40 1013 29.91 842 24.86 -0.3 31.5 62 -6.8 19.8
01:45 1013 29.91 843 24.89 0 32.1 63 -6.2 20.9
01:50 1013 29.91 842 24.86 -0.1 31.8 63 -6.4 20.5
01:55 1013 29.91 842 24.86 -0.1 31.8 61 -6.8 19.7
02:00 1013 29.91 842 24.86 0.2 32.3 60 -6.6 20
02:05 1013 29.91 842 24.86 0.6 33.1 58 -6.6 20
02:10 1013 29.91 842 24.86 0.5 33 59 -6.5 20.3
02:15 1013 29.91 842 24.86 0.5 33 60 -6.4 20.5
02:20 1013 29.91 842 24.86 0.5 32.9 62 -5.9 21.3
02:25 1013 29.91 842 24.86 0.3 32.5 60 -6.6 20.1
02:30 1013 29.91 842 24.86 0.3 32.5 63 -6 21.2
02:35 1013 29.91 842 24.86 0 32 63 -6.3 20.7
02:40 1013 29.91 842 24.86 -0.4 31.3 65 -6.1 21.1
02:45 1013 29.91 842 24.86 -0.6 30.9 66 -6.1 21
02:50 1013 29.91 842 24.86 -0.8 30.6 67 -6.3 20.7
02:55 1013 29.91 842 24.86 -0.8 30.6 67 -6.2 20.8
03:00 1013 29.91 842 24.86 -0.7 30.8 64 -6.7 19.9
03:05 1013 29.91 842 24.86 -0.5 31.2 64 -6.3 20.6
03:10 1013 29.91 842 24.86 -0.5 31.1 65 -6.4 20.5
03:15 1013 29.91 842 24.86 -0.6 30.9 65 -6.4 20.4
03:20 1013 29.91 842 24.86 -0.7 30.8 67 -6.1 21
03:25 1013 29.91 842 24.86 -0.7 30.7 68 -6 21.3
03:30 1013 29.91 842 24.86 -0.8 30.5 67 -6.3 20.7
03:35 1013 29.91 842 24.86 -0.8 30.6 67 -6.1 20.9
03:40 1013 29.91 842 24.86 -0.7 30.7 64 -6.6 20.1
03:45 1013 29.91 842 24.86 -0.5 31.1 66 -6.2 20.9
03:50 1012 29.88 842 24.86 -0.7 30.7 65 -6.5 20.4
03:55 1012 29.88 842 24.86 -0.8 30.5 66 -6.3 20.6
04:00 1012 29.88 842 24.86 -1.1 30 68 -6.3 20.7
04:05 1012 29.88 841 24.83 -1.2 29.9 67 -6.6 20.1
04:10 1012 29.88 841 24.83 -1 30.2 66 -6.5 20.3
04:15 1012 29.88 841 24.83 -0.8 30.5 66 -6.4 20.5
04:20 1012 29.88 841 24.83 -0.9 30.4 66 -6.5 20.4
04:25 1012 29.88 841 24.83 -0.8 30.5 66 -6.4 20.4
04:30 1012 29.88 841 24.83 -0.8 30.5 65 -6.5 20.3
04:35 1012 29.88 841 24.83 -0.7 30.8 65 -6.5 20.3
04:40 1012 29.88 841 24.83 -0.6 31 65 -6.4 20.4
04:45 1012 29.88 842 24.86 -0.5 31.1 65 -6.3 20.6
04:50 1012 29.88 842 24.86 -0.5 31.1 66 -6.2 20.9
04:55 1013 29.91 842 24.86 -0.5 31.2 65 -6.2 20.9
05:00 1013 29.91 842 24.86 -0.5 31.2 66 -6.1 21.1
05:05 1013 29.91 842 24.86 -0.6 31 66 -6.2 20.9
05:10 1013 29.91 842 24.86 -0.4 31.3 66 -6 21.1
05:15 1013 29.91 842 24.86 -0.4 31.3 65 -6.2 20.9
05:20 1013 29.91 842 24.86 -0.4 31.3 65 -6.2 20.9
05:25 1013 29.91 842 24.86 -0.1 31.8 62 -6.5 20.2
05:30 1013 29.91 842 24.86 0.3 32.5 61 -6.3 20.6
05:35 1013 29.91 842 24.86 0.3 32.6 62 -6.1 21
05:40 1013 29.91 842 24.86 0.3 32.5 64 -5.8 21.5
05:45 1013 29.91 842 24.86 0.2 32.4 66 -5.5 22.1
05:50 1013 29.91 842 24.86 -0.1 31.9 68 -5.3 22.4
05:55 1013 29.91 842 24.86 -0.4 31.2 70 -5.3 22.5
06:00 1013 29.91 842 24.86 -0.8 30.6 71 -5.3 22.4
06:05 1013 29.91 842 24.86 -0.8 30.6 72 -5.3 22.4
06:10 1013 29.91 842 24.86 -0.7 30.7 71 -5.4 22.4
06:15 1013 29.91 842 24.86 -0.8 30.7 71 -5.3 22.5
06:20 1013 29.91 842 24.86 -0.7 30.7 69 -5.7 21.8
06:25 1013 29.91 842 24.86 -0.3 31.4 67 -5.7 21.7
06:30 1013 29.91 842 24.86 -0.1 31.8 67 -5.5 22.1
06:35 1013 29.91 842 24.86 0 32.1 68 -5.2 22.7
06:40 1013 29.91 842 24.86 0 32 69 -5 22.9
06:45 1013 29.91 842 24.86 -0.3 31.4 70 -5.2 22.7
06:50 1013 29.91 842 24.86 -0.5 31.2 72 -5 23.1
06:55 1013 29.91 842 24.86 -0.5 31.1 73 -4.8 23.4
07:00 1013 29.91 842 24.86 -0.3 31.4 74 -4.5 23.9
07:05 1013 29.91 842 24.86 -0.3 31.5 75 -4.1 24.6
07:10 1013 29.91 842 24.86 -0.4 31.3 77 -3.9 25.1
07:15 1013 29.91 842 24.86 -0.3 31.5 79 -3.5 25.6
07:20 1013 29.91 842 24.86 -0.3 31.5 80 -3.3 26.1
07:25 1013 29.91 842 24.86 -0.2 31.6 82 -3 26.6
07:30 1013 29.91 843 24.89 -0.1 31.9 82 -2.7 27.1
07:35 1013 29.91 843 24.89 0 32 83 -2.5 27.4
07:40 1013 29.91 843 24.89 -0.1 31.7 84 -2.5 27.4
07:45 1014 29.94 843 24.89 -0.2 31.6 85 -2.4 27.6
07:50 1014 29.94 843 24.89 -0.2 31.6 86 -2.3 27.9
07:55 1014 29.94 843 24.89 -0.3 31.5 87 -2.1 28.2
08:00 1014 29.94 843 24.89 -0.2 31.6 87 -2.1 28.2
08:05 1014 29.94 843 24.89 -0.3 31.5 88 -2 28.4
08:10 1014 29.94 843 24.89 -0.3 31.5 89 -1.9 28.5
08:15 1014 29.94 843 24.89 -0.2 31.7 88 -1.9 28.6
08:20 1014 29.94 843 24.89 -0.1 31.9 88 -1.9 28.6
08:25 1014 29.94 843 24.89 -0.1 31.9 88 -1.9 28.6
08:30 1014 29.94 843 24.89 -0.1 31.8 88 -1.9 28.6
08:35 1014 29.94 843 24.89 -0.1 31.9 88 -1.8 28.8
08:40 1014 29.94 843 24.89 0 32.1 88 -1.8 28.8
08:45 1014 29.94 843 24.89 0.1 32.1 88 -1.8 28.8
08:50 1014 29.94 843 24.89 0.2 32.4 87 -1.6 29.1
08:55 1014 29.94 843 24.89 0.4 32.7 87 -1.6 29.1
09:00 1014 29.94 843 24.89 0.6 33.1 86 -1.5 29.3
09:05 1014 29.94 843 24.89 0.9 33.5 85 -1.4 29.5
09:10 1014 29.94 843 24.89 1 33.8 84 -1.5 29.3
09:15 1014 29.94 843 24.89 0.9 33.6 84 -1.5 29.3
09:20 1014 29.94 843 24.89 0.9 33.5 84 -1.5 29.3
09:25 1014 29.94 843 24.89 0.8 33.4 84 -1.5 29.2
09:30 1014 29.94 843 24.89 0.7 33.3 84 -1.7 28.9
09:35 1014 29.94 843 24.89 0.9 33.6 84 -1.6 29.2
09:40 1014 29.94 843 24.89 1.1 34 82 -1.6 29.1
09:45 1014 29.94 843 24.89 1.1 34 83 -1.5 29.3
09:50 1014 29.94 843 24.89 1.3 34.3 82 -1.4 29.4
09:55 1014 29.94 843 24.89 1.6 34.8 80 -1.5 29.3
10:00 1014 29.94 843 24.89 1.9 35.4 77 -1.7 29
10:05 1014 29.94 843 24.89 1.9 35.4 77 -1.8 28.8
10:10 1014 29.94 843 24.89 2.1 35.7 75 -1.9 28.6
10:15 1014 29.94 843 24.89 2.2 36 74 -2 28.5
10:20 1014 29.94 843 24.89 2.3 36.1 70 -2.5 27.4
10:25 1014 29.94 843 24.89 2.3 36.1 68 -2.9 26.7
10:30 1014 29.94 843 24.89 2.4 36.3 67 -3 26.5
10:35 1014 29.94 843 24.89 2.3 36.1 67 -3.1 26.4
10:40 1014 29.94 843 24.89 2.6 36.7 66 -3.2 26.2
10:45 1014 29.94 843 24.89 2.5 36.5 66 -3.3 26.1
10:50 1014 29.94 843 24.89 2.4 36.3 64 -3.7 25.4
10:55 1014 29.94 843 24.89 2.5 36.5 65 -3.4 25.8
11:00 1014 29.94 843 24.89 2.9 37.2 63 -3.4 25.9
11:05 1014 29.94 843 24.89 3.3 38 63 -3.1 26.5
11:10 1014 29.94 843 24.89 3.6 38.4 61 -3.2 26.2
11:15 1014 29.94 843 24.89 3.9 38.9 62 -2.8 26.9
11:20 1014 29.94 844 24.92 3.8 38.8 63 -2.7 27.1
11:25 1014 29.94 844 24.92 3.9 39 63 -2.5 27.4
11:30 1014 29.94 844 24.92 4.2 39.6 62 -2.3 27.8
11:35 1014 29.94 844 24.92 4.5 40.2 60 -2.6 27.3
11:40 1014 29.94 844 24.92 4.3 39.8 60 -2.8 27
11:45 1014 29.94 843 24.89 4.9 40.8 57 -2.8 26.9
11:50 1014 29.94 843 24.89 5.1 41.1 57 -2.7 27.2
11:55 1014 29.94 843 24.89 4.8 40.6 59 -2.6 27.4
12:00 1014 29.94 843 24.89 4.6 40.2 60 -2.6 27.3
12:05 1014 29.94 843 24.89 4.9 40.8 59 -2.4 27.6
12:10 1014 29.94 843 24.89 5 40.9 57 -2.7 27.1
12:15 1014 29.94 843 24.89 5.2 41.4 57 -2.5 27.4
12:20 1014 29.94 843 24.89 4.9 40.8 58 -2.8 27
12:25 1014 29.94 843 24.89 5.2 41.4 57 -2.6 27.3
12:30 1014 29.94 843 24.89 5.5 41.8 57 -2.4 27.7
12:35 1014 29.94 843 24.89 5.3 41.5 57 -2.5 27.5
12:40 1014 29.94 843 24.89 5.5 41.8 56 -2.5 27.5
12:45 1014 29.94 843 24.89 5.4 41.8 57 -2.4 27.8
12:50 1014 29.94 843 24.89 5.5 42 56 -2.6 27.3
12:55 1014 29.94 843 24.89 5.9 42.5 54 -2.6 27.3
13:00 1014 29.94 843 24.89 6 42.8 55 -2.3 27.9
13:05 1014 29.94 843 24.89 5.9 42.6 55 -2.5 27.6
13:10 1014 29.94 843 24.89 5.9 42.6 55 -2.6 27.4
13:15 1014 29.94 843 24.89 6 42.8 53 -2.8 27
13:20 1014 29.94 843 24.89 6.3 43.3 54 -2.4 27.6
13:25 1014 29.94 843 24.89 6.1 42.9 54 -2.6 27.4
13:30 1014 29.94 843 24.89 6.4 43.4 52 -2.7 27.1
13:35 1014 29.94 843 24.89 6.6 43.9 53 -2.3 27.8
13:40 1014 29.94 843 24.89 6.6 43.8 52 -2.6 27.3
13:45 1014 29.94 843 24.89 6.7 44.1 52 -2.5 27.6
13:50 1014 29.94 843 24.89 6.5 43.6 54 -2.2 28
13:55 1014 29.94 843 24.89 6.2 43.2 55 -2.2 28
14:00 1014 29.94 843 24.89 6.1 42.9 57 -1.9 28.6
14:05 1013 29.91 843 24.89 6 42.9 56 -2.1 28.2
14:10 1013 29.91 843 24.89 6.2 43.2 55 -2.3 27.9
14:15 1013 29.91 843 24.89 6.2 43.1 55 -2.1 28.2
14:20 1013 29.91 843 24.89 6.2 43.1 55 -2.1 28.2
14:25 1013 29.91 842 24.86 6.2 43.1 55 -2.2 28
14:30 1013 29.91 842 24.86 6.1 43 56 -2 28.4
14:35 1013 29.91 842 24.86 6.3 43.4 55 -2.1 28.3
14:40 1013 29.91 842 24.86 6.3 43.3 55 -2 28.4
14:45 1013 29.91 842 24.86 6.1 43 56 -2 28.3
14:50 1013 29.91 842 24.86 6.1 42.9 56 -2 28.4
14:55 1013 29.91 842 24.86 6 42.9 57 -1.9 28.5
15:00 1013 29.91 842 24.86 5.8 42.4 58 -1.8 28.7
15:05 1013 29.91 842 24.86 5.6 42 58 -2 28.4
15:10 1013 29.91 842 24.86 5.8 42.4 57 -2.2 28.1
15:15 1013 29.91 842 24.86 5.6 42.1 58 -2 28.3
15:20 1013 29.91 842 24.86 5.9 42.5 57 -2.1 28.2
15:25 1013 29.91 842 24.86 5.9 42.6 57 -2 28.3
15:30 1013 29.91 842 24.86 6 42.8 56 -2.1 28.2
15:35 1013 29.91 842 24.86 6.4 43.4 54 -2.3 27.9
15:40 1013 29.91 842 24.86 6.6 43.9 55 -1.9 28.7
15:45 1013 29.91 842 24.86 6.4 43.5 54 -2.1 28.2
15:50 1013 29.91 842 24.86 6.7 44.1 54 -1.9 28.5
15:55 1013 29.91 842 24.86 7 44.6 53 -1.9 28.6
16:00 1013 29.91 842 24.86 6.6 43.8 55 -1.8 28.8
16:05 1013 29.91 842 24.86 6 42.7 56 -2.1 28.3
16:10 1013 29.91 842 24.86 5.6 42.1 58 -2 28.3
16:15 1013 29.91 842 24.86 5.2 41.4 60 -1.9 28.5
16:20 1013 29.91 842 24.86 5 41 60 -2.1 28.3
16:25 1013 29.91 842 24.86 5 41 61 -2 28.4
16:30 1013 29.91 842 24.86 4.9 40.9 61 -2 28.3
16:35 1013 29.91 842 24.86 4.9 40.9 60 -2.1 28.3
16:40 1013 29.91 842 24.86 5.1 41.2 59 -2.3 27.8
16:45 1013 29.91 842 24.86 5.2 41.4 56 -2.7 27.1
16:50 1013 29.91 843 24.89 5.5 41.9 52 -3.4 25.8
16:55 1013 29.91 843 24.89 5.6 42.1 51 -3.7 25.3
17:00 1013 29.91 843 24.89 5.7 42.2 48 -4.6 23.8
17:05 1013 29.91 843 24.89 5.9 42.7 45 -5.2 22.7
17:10 1013 29.91 843 24.89 5.9 42.5 47 -4.7 23.5
17:15 1013 29.91 843 24.89 5.7 42.3 47 -4.8 23.4
17:20 1013 29.91 843 24.89 5.6 42 48 -4.6 23.6
17:25 1014 29.94 843 24.89 5.3 41.6 49 -4.5 23.9
17:30 1013 29.91 843 24.89 5.1 41.2 50 -4.5 23.9
17:35 1013 29.91 843 24.89 4.8 40.7 50 -4.8 23.3
17:40 1013 29.91 843 24.89 4.7 40.5 49 -5 23
17:45 1013 29.91 843 24.89 4.7 40.4 49 -5.1 22.8
17:50 1013 29.91 843 24.89 4.6 40.3 49 -5.2 22.6
17:55 1014 29.94 843 24.89 4.5 40.1 49 -5.3 22.5
18:00 1013 29.91 843 24.89 4.4 40 50 -5.2 22.6
18:05 1013 29.91 843 24.89 4.3 39.7 49 -5.6 22
18:10 1014 29.94 843 24.89 4.3 39.7 49 -5.5 22.1
18:15 1014 29.94 843 24.89 4.2 39.6 49 -5.7 21.8
18:20 1014 29.94 843 24.89 4.2 39.6 49 -5.6 21.9
18:25 1014 29.94 843 24.89 4.1 39.4 50 -5.5 22
18:30 1014 29.94 843 24.89 4 39.2 49 -5.8 21.6
18:35 1014 29.94 843 24.89 4 39.3 50 -5.4 22.3
18:40 1014 29.94 843 24.89 3.8 38.8 53 -4.8 23.3
18:45 1014 29.94 843 24.89 3.4 38.1 52 -5.6 21.9
18:50 1014 29.94 843 24.89 3.5 38.4 52 -5.4 22.2
18:55 1014 29.94 843 24.89 3.5 38.3 52 -5.5 22.1
19:00 1014 29.94 843 24.89 3.5 38.3 52 -5.5 22.2
19:05 1014 29.94 843 24.89 3.5 38.4 51 -5.6 21.9
19:10 1014 29.94 843 24.89 3.6 38.4 51 -5.7 21.7
19:15 1014 29.94 843 24.89 3.6 38.4 51 -5.7 21.7
19:20 1014 29.94 843 24.89 3.6 38.5 50 -5.9 21.4
19:25 1014 29.94 843 24.89 3.6 38.4 51 -5.5 22
19:30 1014 29.94 843 24.89 3.4 38.1 51 -5.7 21.7
19:35 1014 29.94 843 24.89 3.3 38 52 -5.7 21.7
19:40 1013 29.91 843 24.89 3.3 38 51 -6 21.2
19:45 1013 29.91 843 24.89 3.4 38.1 51 -5.9 21.3
19:50 1013 29.91 843 24.89 3.5 38.4 49 -6.2 20.8
19:55 1013 29.91 843 24.89 3.7 38.7 49 -6.1 21.1
20:00 1013 29.91 843 24.89 3.7 38.7 48 -6.2 20.9
20:05 1013 29.91 843 24.89 3.9 39 46 -6.6 20.2
20:10 1013 29.91 843 24.89 4.1 39.4 47 -6.2 20.8
20:15 1013 29.91 843 24.89 4.1 39.4 47 -6.3 20.6
20:20 1013 29.91 843 24.89 4.2 39.5 47 -6.1 21
20:25 1013 29.91 843 24.89 4 39.2 49 -5.9 21.4
20:30 1014 29.94 843 24.89 4 39.1 49 -5.7 21.7
20:35 1014 29.94 843 24.89 3.9 38.9 50 -5.7 21.7
20:40 1014 29.94 843 24.89 3.8 38.8 54 -4.7 23.6
20:45 1014 29.94 843 24.89 3.2 37.8 55 -5 23
20:50 1014 29.94 843 24.89 3.1 37.5 55 -5.1 22.7
20:55 1014 29.94 843 24.89 3.2 37.8 54 -5.3 22.5
21:00 1014 29.94 844 24.92 3.3 37.9 53 -5.4 22.3
21:05 1014 29.94 844 24.92 3.5 38.4 53 -5.3 22.5
21:10 1015 29.97 844 24.92 3.6 38.4 53 -5.1 22.8
21:15 1015 29.97 844 24.92 3.5 38.3 53 -5.1 22.9
21:20 1015 29.97 844 24.92 3.6 38.4 54 -5 23.1
21:25 1015 29.97 844 24.92 3.6 38.4 53 -5.1 22.8
21:30 1015 29.97 844 24.92 3.5 38.3 56 -4.5 24
21:35 1015 29.97 844 24.92 3.4 38.1 58 -4.1 24.6
21:40 1015 29.97 844 24.92 3.3 38 59 -3.9 24.9
21:45 1015 29.97 844 24.92 3.3 38 59 -4 24.8
21:50 1015 29.97 844 24.92 3.3 38 61 -3.4 26
21:55 1015 29.97 844 24.92 3.3 37.9 64 -2.9 26.7
22:00 1015 29.97 844 24.92 3.2 37.7 64 -3 26.6
22:05 1015 29.97 844 24.92 3.2 37.8 63 -3.2 26.3
22:10 1015 29.97 844 24.92 3.3 37.9 62 -3.3 26
22:15 1015 29.97 844 24.92 3.2 37.7 61 -3.6 25.5
22:20 1015 29.97 844 24.92 3 37.4 62 -3.6 25.6
22:25 1015 29.97 845 24.95 2.9 37.2 62 -3.6 25.5
22:30 1015 29.97 845 24.95 2.8 37 64 -3.4 25.8
22:35 1015 29.97 845 24.95 2.7 36.8 67 -2.9 26.8
22:40 1015 29.97 845 24.95 2.4 36.3 69 -2.6 27.3
22:45 1015 29.97 845 24.95 2.2 35.9 71 -2.5 27.5
22:50 1015 29.97 845 24.95 1.9 35.5 74 -2.1 28.2
22:55 1015 29.97 845 24.95 1.7 35.1 76 -2 28.4
23:00 1015 29.97 845 24.95 1.5 34.6 80 -1.7 29
23:05 1015 29.97 845 24.95 1.4 34.5 81 -1.5 29.4
23:10 1015 29.97 845 24.95 1.3 34.4 81 -1.5 29.2
23:15 1015 29.97 845 24.95 1.2 34.1 84 -1.3 29.6
23:20 1015 29.97 845 24.95 1.1 33.9 84 -1.4 29.5
23:25 1015 29.97 845 24.95 1.2 34.2 84 -1.2 29.9
23:30 1015 29.97 845 24.95 1.1 34 85 -1.1 30.1
23:35 1015 29.97 845 24.95 1.1 34 85 -1.2 29.9
23:40 1015 29.97 845 24.95 1.1 34 85 -1.2 29.9
23:45 1015 29.97 845 24.95 1.1 34 85 -1.2 29.9
23:50 1015 29.97 845 24.95 1.1 34 85 -1.2 29.8
23:55 1015 29.97 845 24.95 1.1 33.9 84 -1.3 29.6
24:00 1015 29.97 844 24.92 1.1 33.9 83 -1.4 29.4